Aviation Digital Data Service (ADDS)

Output produced by METARs form (1029 UTC 20 July 2018)
found at http://aviationweather.gov/adds/metars/
 
METAR text: RJNK 201000Z 36004KT 9000 FEW030 31/22 Q1010
Conditions at: RJNK (KOMATSU (CIV/JAS, JP) observed 1000 UTC 20 July 2018
Temperature: 31.0°C (88°F)
Dewpoint: 22.0°C (72°F) [RH = 59%]
Pressure (altimeter): 29.82 inches Hg (1010.0 mb)
Winds: from the N (360 degrees) at 5 MPH (4 knots; 2.1 m/s)
Visibility: 6 miles (9 km)
Ceiling: at least 12,000 feet AGL
Clouds: few clouds at 3000 feet AGL
Weather: no significant weather observed at this time